sensor_id;sensor_type;location;lat;lon;timestamp;pressure;altitude;pressure_sealevel;temperature;humidity
57094;BME280;42970;50.996;3.706;2023-03-26T00:00:02;74167.91;;;-146.65;61.72
57094;BME280;42970;50.996;3.706;2023-03-26T00:02:28;74149.75;;;-146.65;61.24
57094;BME280;42970;50.996;3.706;2023-03-26T00:04:53;74202.19;;;-146.65;62.53
57094;BME280;42970;50.996;3.706;2023-03-26T00:07:19;74230.41;;;-146.65;64.16
57094;BME280;42970;50.996;3.706;2023-03-26T00:09:44;74159.84;;;-146.65;62.36
57094;BME280;42970;50.996;3.706;2023-03-26T00:12:10;74184.03;;;-146.65;62.21
57094;BME280;42970;50.996;3.706;2023-03-26T00:14:35;74169.91;;;-146.65;61.26
57094;BME280;42970;50.996;3.706;2023-03-26T00:17:01;74194.13;;;-146.65;62.87
57094;BME280;42970;50.996;3.706;2023-03-26T00:19:26;74198.16;;;-146.65;62.87
57094;BME280;42970;50.996;3.706;2023-03-26T00:21:52;74246.53;;;-146.65;63.50
57094;BME280;42970;50.996;3.706;2023-03-26T00:24:17;74188.06;;;-146.65;61.91
57094;BME280;42970;50.996;3.706;2023-03-26T00:26:42;74196.13;;;-146.65;63.46
57094;BME280;42970;50.996;3.706;2023-03-26T00:29:08;74200.16;;;-146.65;63.18
57094;BME280;42970;50.996;3.706;2023-03-26T00:31:37;74149.75;;;-146.65;62.27
57094;BME280;42970;50.996;3.706;2023-03-26T00:34:03;74145.72;;;-146.65;61.95
57094;BME280;42970;50.996;3.706;2023-03-26T00:36:30;74177.97;;;-146.65;63.72
57094;BME280;42970;50.996;3.706;2023-03-26T00:38:56;74099.34;;;-146.65;61.70
57094;BME280;42970;50.996;3.706;2023-03-26T00:41:22;74065.06;;;-146.65;60.66
57094;BME280;42970;50.996;3.706;2023-03-26T00:43:50;74099.34;;;-146.65;61.96
57094;BME280;42970;50.996;3.706;2023-03-26T00:46:16;74103.38;;;-146.65;61.76
57094;BME280;42970;50.996;3.706;2023-03-26T00:48:42;74055.00;;;-146.65;60.91
57094;BME280;42970;50.996;3.706;2023-03-26T00:51:08;74107.41;;;-146.65;61.68
57094;BME280;42970;50.996;3.706;2023-03-26T00:53:33;74057.00;;;-146.65;61.16
57094;BME280;42970;50.996;3.706;2023-03-26T00:56:02;74065.06;;;-146.65;60.86
57094;BME280;42970;50.996;3.706;2023-03-26T00:58:27;74099.34;;;-146.65;62.02
57094;BME280;42970;50.996;3.706;2023-03-26T01:00:57;74111.44;;;-146.65;62.35
57094;BME280;42970;50.996;3.706;2023-03-26T01:03:24;74095.31;;;-146.65;62.13
57094;BME280;42970;50.996;3.706;2023-03-26T01:05:50;74153.78;;;-146.65;64.10
57094;BME280;42970;50.996;3.706;2023-03-26T01:10:55;74159.84;;;-146.65;64.47
57094;BME280;42970;50.996;3.706;2023-03-26T01:13:27;74169.91;;;-146.65;65.11
57094;BME280;42970;50.996;3.706;2023-03-26T01:15:54;74202.19;;;-146.65;66.33
57094;BME280;42970;50.996;3.706;2023-03-26T01:18:22;74177.97;;;-146.65;65.14
57094;BME280;42970;50.996;3.706;2023-03-26T01:20:51;74155.81;;;-146.65;65.09
57094;BME280;42970;50.996;3.706;2023-03-26T01:23:23;74212.25;;;-146.65;65.68
57094;BME280;42970;50.996;3.706;2023-03-26T01:25:53;74196.13;;;-146.65;66.09
57094;BME280;42970;50.996;3.706;2023-03-26T01:28:23;74186.06;;;-146.65;66.23
57094;BME280;42970;50.996;3.706;2023-03-26T01:30:55;74218.31;;;-146.65;66.85
57094;BME280;42970;50.996;3.706;2023-03-26T01:35:59;74165.88;;;-146.65;65.35
57094;BME280;42970;50.996;3.706;2023-03-26T01:41:10;74131.59;;;-146.65;64.65
57094;BME280;42970;50.996;3.706;2023-03-26T01:46:08;74161.84;;;-146.65;65.14
57094;BME280;42970;50.996;3.706;2023-03-26T01:48:38;74143.72;;;-146.65;64.86
57094;BME280;42970;50.996;3.706;2023-03-26T01:51:05;74093.31;;;-146.65;63.72
57094;BME280;42970;50.996;3.706;2023-03-26T01:53:30;74224.34;;;-146.65;65.97
57094;BME280;42970;50.996;3.706;2023-03-26T01:58:28;74184.03;;;-146.65;66.35
57094;BME280;42970;50.996;3.706;2023-03-26T02:01:02;74145.72;;;-146.65;64.33
57094;BME280;42970;50.996;3.706;2023-03-26T02:03:31;74165.88;;;-146.65;64.76
57094;BME280;42970;50.996;3.706;2023-03-26T02:08:27;74188.06;;;-146.65;65.52
57094;BME280;42970;50.996;3.706;2023-03-26T02:10:59;74169.91;;;-146.65;65.58
57094;BME280;42970;50.996;3.706;2023-03-26T02:13:28;74161.84;;;-146.65;64.91
57094;BME280;42970;50.996;3.706;2023-03-26T02:15:55;74214.28;;;-146.65;66.34
57094;BME280;42970;50.996;3.706;2023-03-26T02:18:20;74218.31;;;-146.65;66.55
57094;BME280;42970;50.996;3.706;2023-03-26T02:20:49;74202.19;;;-146.65;66.20
57094;BME280;42970;50.996;3.706;2023-03-26T02:23:17;74141.69;;;-146.65;64.81
57094;BME280;42970;50.996;3.706;2023-03-26T02:25:43;74151.78;;;-146.65;64.78
57094;BME280;42970;50.996;3.706;2023-03-26T02:28:08;74137.66;;;-146.65;64.83
57094;BME280;42970;50.996;3.706;2023-03-26T02:30:33;74097.34;;;-146.65;63.25
57094;BME280;42970;50.996;3.706;2023-03-26T02:32:58;74085.22;;;-146.65;62.47
57094;BME280;42970;50.996;3.706;2023-03-26T02:35:24;74077.16;;;-146.65;62.14
57094;BME280;42970;50.996;3.706;2023-03-26T02:37:49;74073.13;;;-146.65;62.88
57094;BME280;42970;50.996;3.706;2023-03-26T02:40:16;74095.31;;;-146.65;63.05
57094;BME280;42970;50.996;3.706;2023-03-26T02:42:41;74040.88;;;-146.65;61.25
57094;BME280;42970;50.996;3.706;2023-03-26T02:45:07;74107.41;;;-146.65;62.84
57094;BME280;42970;50.996;3.706;2023-03-26T02:47:32;74077.16;;;-146.65;61.97
57094;BME280;42970;50.996;3.706;2023-03-26T02:49:58;74065.06;;;-146.65;62.33
57094;BME280;42970;50.996;3.706;2023-03-26T02:52:23;74105.41;;;-146.65;62.49
57094;BME280;42970;50.996;3.706;2023-03-26T02:54:48;74077.16;;;-146.65;62.63
57094;BME280;42970;50.996;3.706;2023-03-26T02:57:14;74129.59;;;-146.65;63.64
57094;BME280;42970;50.996;3.706;2023-03-26T02:59:39;74057.00;;;-146.65;62.55
57094;BME280;42970;50.996;3.706;2023-03-26T03:02:04;74081.19;;;-146.65;62.97
57094;BME280;42970;50.996;3.706;2023-03-26T03:04:30;74085.22;;;-146.65;62.92
57094;BME280;42970;50.996;3.706;2023-03-26T03:06:55;74149.75;;;-146.65;63.98
57094;BME280;42970;50.996;3.706;2023-03-26T03:09:24;74107.41;;;-146.65;63.41
57094;BME280;42970;50.996;3.706;2023-03-26T03:11:49;74137.66;;;-146.65;64.63
57094;BME280;42970;50.996;3.706;2023-03-26T03:14:16;74145.72;;;-146.65;64.68
57094;BME280;42970;50.996;3.706;2023-03-26T03:16:41;74141.69;;;-146.65;64.69
57094;BME280;42970;50.996;3.706;2023-03-26T03:19:07;74105.41;;;-146.65;63.60
57094;BME280;42970;50.996;3.706;2023-03-26T03:21:32;74117.50;;;-146.65;63.60
57094;BME280;42970;50.996;3.706;2023-03-26T03:23:57;74079.19;;;-146.65;62.97
57094;BME280;42970;50.996;3.706;2023-03-26T03:26:23;74024.75;;;-146.65;62.17
57094;BME280;42970;50.996;3.706;2023-03-26T03:28:53;74018.69;;;-146.65;61.39
57094;BME280;42970;50.996;3.706;2023-03-26T03:31:20;74004.59;;;-146.65;61.22
57094;BME280;42970;50.996;3.706;2023-03-26T03:33:46;74022.72;;;-146.65;62.10
57094;BME280;42970;50.996;3.706;2023-03-26T03:36:14;74032.81;;;-146.65;62.19
57094;BME280;42970;50.996;3.706;2023-03-26T03:38:42;74030.78;;;-146.65;62.21
57094;BME280;42970;50.996;3.706;2023-03-26T03:41:08;74022.72;;;-146.65;62.66
57094;BME280;42970;50.996;3.706;2023-03-26T03:43:33;73988.44;;;-146.65;61.66
57094;BME280;42970;50.996;3.706;2023-03-26T03:45:59;73996.50;;;-146.65;61.02
57094;BME280;42970;50.996;3.706;2023-03-26T03:48:25;74004.59;;;-146.65;62.51
57094;BME280;42970;50.996;3.706;2023-03-26T03:50:50;74034.81;;;-146.65;63.43
57094;BME280;42970;50.996;3.706;2023-03-26T03:53:16;74008.63;;;-146.65;62.27
57094;BME280;42970;50.996;3.706;2023-03-26T03:55:42;73972.31;;;-146.65;61.70
57094;BME280;42970;50.996;3.706;2023-03-26T03:58:16;73984.41;;;-146.65;62.47
57094;BME280;42970;50.996;3.706;2023-03-26T04:00:46;73990.47;;;-146.65;62.86
57094;BME280;42970;50.996;3.706;2023-03-26T04:03:12;73960.22;;;-146.65;61.45
57094;BME280;42970;50.996;3.706;2023-03-26T04:05:38;73934.00;;;-146.65;61.12
57094;BME280;42970;50.996;3.706;2023-03-26T04:08:04;73986.44;;;-146.65;62.28
57094;BME280;42970;50.996;3.706;2023-03-26T04:10:30;73972.31;;;-146.65;61.98
57094;BME280;42970;50.996;3.706;2023-03-26T04:12:55;73932.00;;;-146.65;61.61
57094;BME280;42970;50.996;3.706;2023-03-26T04:15:20;73952.16;;;-146.65;61.39
57094;BME280;42970;50.996;3.706;2023-03-26T04:17:46;73909.81;;;-146.65;61.21
57094;BME280;42970;50.996;3.706;2023-03-26T04:20:11;73950.13;;;-146.65;62.58
57094;BME280;42970;50.996;3.706;2023-03-26T04:22:40;73998.53;;;-146.65;63.26
57094;BME280;42970;50.996;3.706;2023-03-26T04:25:06;73923.94;;;-146.65;62.20
57094;BME280;42970;50.996;3.706;2023-03-26T04:27:31;73964.25;;;-146.65;62.66
57094;BME280;42970;50.996;3.706;2023-03-26T04:30:00;73948.13;;;-146.65;62.01
57094;BME280;42970;50.996;3.706;2023-03-26T04:32:27;73944.09;;;-146.65;62.71
57094;BME280;42970;50.996;3.706;2023-03-26T04:34:58;73899.75;;;-146.65;62.09
57094;BME280;42970;50.996;3.706;2023-03-26T04:37:28;73927.97;;;-146.65;62.61
57094;BME280;42970;50.996;3.706;2023-03-26T04:39:59;73936.03;;;-146.65;62.64
57094;BME280;42970;50.996;3.706;2023-03-26T04:42:24;73919.91;;;-146.65;62.49
57094;BME280;42970;50.996;3.706;2023-03-26T04:44:50;73938.03;;;-146.65;63.13
57094;BME280;42970;50.996;3.706;2023-03-26T04:47:19;73968.28;;;-146.65;64.01
57094;BME280;42970;50.996;3.706;2023-03-26T04:49:44;73952.16;;;-146.65;63.53
57094;BME280;42970;50.996;3.706;2023-03-26T04:52:11;73923.94;;;-146.65;62.81
57094;BME280;42970;50.996;3.706;2023-03-26T04:54:37;73948.13;;;-146.65;63.63
57094;BME280;42970;50.996;3.706;2023-03-26T04:57:03;73847.31;;;-146.65;60.88
57094;BME280;42970;50.996;3.706;2023-03-26T04:59:33;73905.78;;;-146.65;61.50
57094;BME280;42970;50.996;3.706;2023-03-26T05:02:00;73919.91;;;-146.65;62.60
57094;BME280;42970;50.996;3.706;2023-03-26T05:04:26;73984.41;;;-146.65;63.95
57094;BME280;42970;50.996;3.706;2023-03-26T05:06:53;73919.91;;;-146.65;61.44
57094;BME280;42970;50.996;3.706;2023-03-26T05:09:20;73927.97;;;-146.65;61.57
57094;BME280;42970;50.996;3.706;2023-03-26T05:11:45;73936.03;;;-146.65;61.21
57094;BME280;42970;50.996;3.706;2023-03-26T05:14:12;73909.81;;;-146.65;61.07
57094;BME280;42970;50.996;3.706;2023-03-26T05:16:37;73992.47;;;-146.65;59.29
57094;BME280;42970;50.996;3.706;2023-03-26T05:19:05;73944.09;;;-146.65;59.38
57094;BME280;42970;50.996;3.706;2023-03-26T05:21:31;74010.63;;;-146.65;60.77
57094;BME280;42970;50.996;3.706;2023-03-26T05:23:56;74012.66;;;-146.65;60.15
57094;BME280;42970;50.996;3.706;2023-03-26T05:26:21;73960.22;;;-146.65;59.68
57094;BME280;42970;50.996;3.706;2023-03-26T05:28:47;73927.97;;;-146.65;59.59
57094;BME280;42970;50.996;3.706;2023-03-26T05:31:12;73964.25;;;-146.65;59.35
57094;BME280;42970;50.996;3.706;2023-03-26T05:33:39;73960.22;;;-146.65;58.90
57094;BME280;42970;50.996;3.706;2023-03-26T05:36:06;73964.25;;;-146.65;59.78
57094;BME280;42970;50.996;3.706;2023-03-26T05:38:33;74004.59;;;-146.65;62.12
57094;BME280;42970;50.996;3.706;2023-03-26T05:40:59;74022.72;;;-146.65;62.63
57094;BME280;42970;50.996;3.706;2023-03-26T05:43:25;74016.69;;;-146.65;62.56
57094;BME280;42970;50.996;3.706;2023-03-26T05:45:50;73960.22;;;-146.65;62.81
57094;BME280;42970;50.996;3.706;2023-03-26T05:48:16;73992.47;;;-146.65;64.53
57094;BME280;42970;50.996;3.706;2023-03-26T05:50:41;74061.03;;;-146.65;67.23
57094;BME280;42970;50.996;3.706;2023-03-26T05:53:07;74044.91;;;-146.65;69.92
57094;BME280;42970;50.996;3.706;2023-03-26T05:55:32;74038.84;;;-146.65;70.00
57094;BME280;42970;50.996;3.706;2023-03-26T05:57:57;74057.00;;;-146.65;70.79
57094;BME280;42970;50.996;3.706;2023-03-26T06:00:23;74036.84;;;-146.65;70.87
57094;BME280;42970;50.996;3.706;2023-03-26T06:02:49;73992.47;;;-146.65;70.04
57094;BME280;42970;50.996;3.706;2023-03-26T06:05:15;74028.78;;;-146.65;71.10
57094;BME280;42970;50.996;3.706;2023-03-26T06:07:40;74030.78;;;-146.65;70.76
57094;BME280;42970;50.996;3.706;2023-03-26T06:10:05;74034.81;;;-146.65;71.09
57094;BME280;42970;50.996;3.706;2023-03-26T06:12:31;74012.66;;;-146.65;71.25
57094;BME280;42970;50.996;3.706;2023-03-26T06:14:56;74022.72;;;-146.65;72.02
57094;BME280;42970;50.996;3.706;2023-03-26T06:17:21;73976.34;;;-146.65;70.48
57094;BME280;42970;50.996;3.706;2023-03-26T06:19:47;73964.25;;;-146.65;70.64
57094;BME280;42970;50.996;3.706;2023-03-26T06:22:12;74034.81;;;-146.65;70.82
57094;BME280;42970;50.996;3.706;2023-03-26T06:24:38;74042.88;;;-146.65;72.16
57094;BME280;42970;50.996;3.706;2023-03-26T06:27:03;74040.88;;;-146.65;71.37
57094;BME280;42970;50.996;3.706;2023-03-26T06:29:28;74016.69;;;-146.65;71.65
57094;BME280;42970;50.996;3.706;2023-03-26T06:31:53;74002.56;;;-146.65;71.72
57094;BME280;42970;50.996;3.706;2023-03-26T06:34:19;73996.50;;;-146.65;71.35
57094;BME280;42970;50.996;3.706;2023-03-26T06:36:44;74002.56;;;-146.65;71.13
57094;BME280;42970;50.996;3.706;2023-03-26T06:39:12;73978.38;;;-146.65;71.04
57094;BME280;42970;50.996;3.706;2023-03-26T06:41:38;73976.34;;;-146.65;70.88
57094;BME280;42970;50.996;3.706;2023-03-26T06:44:04;73978.38;;;-146.65;70.31
57094;BME280;42970;50.996;3.706;2023-03-26T06:46:29;74016.69;;;-146.65;71.98
57094;BME280;42970;50.996;3.706;2023-03-26T06:48:55;74018.69;;;-146.65;71.56
57094;BME280;42970;50.996;3.706;2023-03-26T06:51:20;74006.59;;;-146.65;71.26
57094;BME280;42970;50.996;3.706;2023-03-26T06:53:46;73994.50;;;-146.65;71.01
57094;BME280;42970;50.996;3.706;2023-03-26T06:56:11;73996.50;;;-146.65;71.01
57094;BME280;42970;50.996;3.706;2023-03-26T06:58:36;73954.19;;;-146.65;70.39
57094;BME280;42970;50.996;3.706;2023-03-26T07:01:02;73956.19;;;-146.65;70.85
57094;BME280;42970;50.996;3.706;2023-03-26T07:03:27;73998.53;;;-146.65;71.39
57094;BME280;42970;50.996;3.706;2023-03-26T07:05:52;73938.03;;;-146.65;71.18
57094;BME280;42970;50.996;3.706;2023-03-26T07:08:17;73990.47;;;-146.65;71.14
57094;BME280;42970;50.996;3.706;2023-03-26T07:10:43;74022.72;;;-146.65;70.24
57094;BME280;42970;50.996;3.706;2023-03-26T07:13:08;73982.41;;;-146.65;71.73
57094;BME280;42970;50.996;3.706;2023-03-26T07:15:33;74024.75;;;-146.65;71.92
57094;BME280;42970;50.996;3.706;2023-03-26T07:17:58;74012.66;;;-146.65;70.82
57094;BME280;42970;50.996;3.706;2023-03-26T07:20:24;74026.75;;;-146.65;69.73
57094;BME280;42970;50.996;3.706;2023-03-26T07:22:50;73992.47;;;-146.65;69.77
57094;BME280;42970;50.996;3.706;2023-03-26T07:25:16;74020.72;;;-146.65;70.47
57094;BME280;42970;50.996;3.706;2023-03-26T07:27:51;74028.78;;;-146.65;70.09
57094;BME280;42970;50.996;3.706;2023-03-26T07:35:27;74050.97;;;-146.65;70.88
57094;BME280;42970;50.996;3.706;2023-03-26T07:40:51;74008.63;;;-146.65;69.36
57094;BME280;42970;50.996;3.706;2023-03-26T07:45:54;74042.88;;;-146.65;69.46
57094;BME280;42970;50.996;3.706;2023-03-26T07:48:20;74016.69;;;-146.65;70.44
57094;BME280;42970;50.996;3.706;2023-03-26T07:50:49;74030.78;;;-146.65;70.08
57094;BME280;42970;50.996;3.706;2023-03-26T07:53:15;74002.56;;;-146.65;70.13
57094;BME280;42970;50.996;3.706;2023-03-26T07:56:27;74004.59;;;-146.65;68.69
57094;BME280;42970;50.996;3.706;2023-03-26T08:00:54;73895.69;;;-146.65;67.95
57094;BME280;42970;50.996;3.706;2023-03-26T08:08:18;73921.91;;;-146.65;68.77
57094;BME280;42970;50.996;3.706;2023-03-26T08:13:29;74044.91;;;-146.65;70.93
57094;BME280;42970;50.996;3.706;2023-03-26T08:18:34;73976.34;;;-146.65;70.90
57094;BME280;42970;50.996;3.706;2023-03-26T08:23:34;73919.91;;;-146.65;68.10
57094;BME280;42970;50.996;3.706;2023-03-26T08:26:12;73923.94;;;-146.65;69.07
57094;BME280;42970;50.996;3.706;2023-03-26T08:28:44;73901.75;;;-146.65;69.26
57094;BME280;42970;50.996;3.706;2023-03-26T08:31:13;73911.84;;;-146.65;68.57
57094;BME280;42970;50.996;3.706;2023-03-26T08:33:39;73923.94;;;-146.65;69.64
57094;BME280;42970;50.996;3.706;2023-03-26T08:36:05;73927.97;;;-146.65;68.95
57094;BME280;42970;50.996;3.706;2023-03-26T08:38:30;73958.22;;;-146.65;70.31
57094;BME280;42970;50.996;3.706;2023-03-26T08:46:25;73919.91;;;-146.65;70.85
57094;BME280;42970;50.996;3.706;2023-03-26T09:04:50;73932.00;;;-146.65;69.25
57094;BME280;42970;50.996;3.706;2023-03-26T09:18:01;73919.91;;;-146.65;69.99
57094;BME280;42970;50.996;3.706;2023-03-26T09:40:54;73964.25;;;-146.65;70.40
57094;BME280;42970;50.996;3.706;2023-03-26T09:46:19;73851.34;;;-146.65;67.83
57094;BME280;42970;50.996;3.706;2023-03-26T09:56:44;73887.63;;;-146.65;68.82
57094;BME280;42970;50.996;3.706;2023-03-26T10:12:20;73855.38;;;-146.65;67.33
57094;BME280;42970;50.996;3.706;2023-03-26T10:14:58;73887.63;;;-146.65;67.12
57094;BME280;42970;50.996;3.706;2023-03-26T10:26:07;74044.91;;;-146.65;71.08
57094;BME280;42970;50.996;3.706;2023-03-26T10:36:19;73887.63;;;-146.65;68.15
57094;BME280;42970;50.996;3.706;2023-03-26T10:41:48;73980.38;;;-146.65;69.32
57094;BME280;42970;50.996;3.706;2023-03-26T10:44:31;73972.31;;;-146.65;69.29
57094;BME280;42970;50.996;3.706;2023-03-26T10:52:09;73927.97;;;-146.65;68.19
57094;BME280;42970;50.996;3.706;2023-03-26T10:57:56;73968.28;;;-146.65;68.86
57094;BME280;42970;50.996;3.706;2023-03-26T11:00:00;73915.88;;;-146.65;68.20
57094;BME280;42970;50.996;3.706;2023-03-26T11:12:44;73948.13;;;-146.65;67.87
57094;BME280;42970;50.996;3.706;2023-03-26T11:15:26;73923.94;;;-146.65;66.23
57094;BME280;42970;50.996;3.706;2023-03-26T11:17:57;73899.75;;;-146.65;65.36
57094;BME280;42970;50.996;3.706;2023-03-26T11:33:04;73857.41;;;-146.65;60.80
57094;BME280;42970;50.996;3.706;2023-03-26T11:35:32;73831.19;;;-146.65;63.02
57094;BME280;42970;50.996;3.706;2023-03-26T11:38:07;73754.56;;;-146.65;60.81
57094;BME280;42970;50.996;3.706;2023-03-26T11:40:43;73827.16;;;-146.65;62.25
57094;BME280;42970;50.996;3.706;2023-03-26T11:43:14;73859.41;;;-146.65;60.89
57094;BME280;42970;50.996;3.706;2023-03-26T11:45:44;73831.19;;;-146.65;59.76
57094;BME280;42970;50.996;3.706;2023-03-26T11:48:18;73881.59;;;-146.65;60.36
57094;BME280;42970;50.996;3.706;2023-03-26T11:50:46;73879.56;;;-146.65;60.24
57094;BME280;42970;50.996;3.706;2023-03-26T11:53:14;73907.81;;;-146.65;59.58
57094;BME280;42970;50.996;3.706;2023-03-26T12:00:55;73883.59;;;-146.65;60.68
57094;BME280;42970;50.996;3.706;2023-03-26T12:03:20;73919.91;;;-146.65;61.44
57094;BME280;42970;50.996;3.706;2023-03-26T12:05:47;73883.59;;;-146.65;60.93
57094;BME280;42970;50.996;3.706;2023-03-26T12:08:27;73881.59;;;-146.65;59.87
57094;BME280;42970;50.996;3.706;2023-03-26T12:11:03;73944.09;;;-146.65;59.91
57094;BME280;42970;50.996;3.706;2023-03-26T12:16:09;73879.56;;;-146.65;60.67
57094;BME280;42970;50.996;3.706;2023-03-26T12:18:35;73978.38;;;-146.65;62.86
57094;BME280;42970;50.996;3.706;2023-03-26T12:21:02;73984.41;;;-146.65;62.30
57094;BME280;42970;50.996;3.706;2023-03-26T12:23:36;73897.72;;;-146.65;61.96
57094;BME280;42970;50.996;3.706;2023-03-26T12:26:04;73855.38;;;-146.65;60.28
57094;BME280;42970;50.996;3.706;2023-03-26T12:28:32;73843.28;;;-146.65;60.21
57094;BME280;42970;50.996;3.706;2023-03-26T12:30:59;73790.88;;;-146.65;59.34
57094;BME280;42970;50.996;3.706;2023-03-26T12:33:29;73861.44;;;-146.65;59.57
57094;BME280;42970;50.996;3.706;2023-03-26T12:35:58;73829.16;;;-146.65;59.57
57094;BME280;42970;50.996;3.706;2023-03-26T12:38:31;73843.28;;;-146.65;60.69
57094;BME280;42970;50.996;3.706;2023-03-26T12:46:00;73774.72;;;-146.65;59.75
57094;BME280;42970;50.996;3.706;2023-03-26T12:48:26;73865.47;;;-146.65;62.25
57094;BME280;42970;50.996;3.706;2023-03-26T12:51:03;73867.47;;;-146.65;61.69
57094;BME280;42970;50.996;3.706;2023-03-26T13:03:29;73857.41;;;-146.65;61.29
57094;BME280;42970;50.996;3.706;2023-03-26T13:05:59;73859.41;;;-146.65;62.12
57094;BME280;42970;50.996;3.706;2023-03-26T13:16:33;73948.13;;;-146.65;62.65
57094;BME280;42970;50.996;3.706;2023-03-26T13:18:51;73927.97;;;-146.65;63.31
57094;BME280;42970;50.996;3.706;2023-03-26T13:21:41;73903.78;;;-146.65;62.69
57094;BME280;42970;50.996;3.706;2023-03-26T13:37:28;74024.75;;;-146.65;65.41
57094;BME280;42970;50.996;3.706;2023-03-26T13:42:35;74069.09;;;-146.65;65.93
57094;BME280;42970;50.996;3.706;2023-03-26T13:45:05;74010.63;;;-146.65;65.85
57094;BME280;42970;50.996;3.706;2023-03-26T13:47:35;74042.88;;;-146.65;66.26
57094;BME280;42970;50.996;3.706;2023-03-26T13:50:05;74050.97;;;-146.65;66.87
57094;BME280;42970;50.996;3.706;2023-03-26T13:52:36;74137.66;;;-146.65;68.73
57094;BME280;42970;50.996;3.706;2023-03-26T13:57:40;74097.34;;;-146.65;70.30
57094;BME280;42970;50.996;3.706;2023-03-26T14:05:04;74085.22;;;-146.65;69.84
57094;BME280;42970;50.996;3.706;2023-03-26T14:10:16;74048.94;;;-146.65;68.97
57094;BME280;42970;50.996;3.706;2023-03-26T14:12:58;74087.25;;;-146.65;70.01
57094;BME280;42970;50.996;3.706;2023-03-26T14:15:31;74065.06;;;-146.65;69.33
57094;BME280;42970;50.996;3.706;2023-03-26T14:21:05;74018.69;;;-146.65;68.56
57094;BME280;42970;50.996;3.706;2023-03-26T14:28:58;74081.19;;;-146.65;71.44
57094;BME280;42970;50.996;3.706;2023-03-26T14:39:39;74055.00;;;-146.65;69.68
57094;BME280;42970;50.996;3.706;2023-03-26T14:45:07;74147.75;;;-146.65;72.61
57094;BME280;42970;50.996;3.706;2023-03-26T14:47:54;74169.91;;;-146.65;73.71
57094;BME280;42970;50.996;3.706;2023-03-26T14:50:29;74073.13;;;-146.65;70.98
57094;BME280;42970;50.996;3.706;2023-03-26T14:53:02;74127.56;;;-146.65;71.36
57094;BME280;42970;50.996;3.706;2023-03-26T15:43:19;74266.69;;;-146.65;66.55
57094;BME280;42970;50.996;3.706;2023-03-26T15:58:27;74214.28;;;-146.65;63.74
57094;BME280;42970;50.996;3.706;2023-03-26T16:01:12;74230.41;;;-146.65;63.73
57094;BME280;42970;50.996;3.706;2023-03-26T16:14:17;74337.28;;;-146.65;64.52
57094;BME280;42970;50.996;3.706;2023-03-26T16:16:56;74329.22;;;-146.65;64.67
57094;BME280;42970;50.996;3.706;2023-03-26T16:19:33;74399.78;;;-146.65;65.22
57094;BME280;42970;50.996;3.706;2023-03-26T16:22:08;74383.66;;;-146.65;64.26
57094;BME280;42970;50.996;3.706;2023-03-26T16:24:42;74407.84;;;-146.65;63.53
57094;BME280;42970;50.996;3.706;2023-03-26T16:27:31;74401.81;;;-146.65;64.41
57094;BME280;42970;50.996;3.706;2023-03-26T16:32:31;74395.75;;;-146.65;63.20
57094;BME280;42970;50.996;3.706;2023-03-26T16:34:58;74460.28;;;-146.65;63.02
57094;BME280;42970;50.996;3.706;2023-03-26T16:42:56;74460.28;;;-146.65;60.15
57094;BME280;42970;50.996;3.706;2023-03-26T16:53:21;74478.44;;;-146.65;59.06
57094;BME280;42970;50.996;3.706;2023-03-26T16:55:57;74500.63;;;-146.65;58.53
57094;BME280;42970;50.996;3.706;2023-03-26T16:58:28;74544.97;;;-146.65;58.28
57094;BME280;42970;50.996;3.706;2023-03-26T17:06:24;74536.91;;;-146.65;57.72
57094;BME280;42970;50.996;3.706;2023-03-26T17:09:00;74589.34;;;-146.65;58.06
57094;BME280;42970;50.996;3.706;2023-03-26T17:14:03;74569.19;;;-146.65;57.32
57094;BME280;42970;50.996;3.706;2023-03-26T17:16:36;74585.31;;;-146.65;56.28
57094;BME280;42970;50.996;3.706;2023-03-26T17:21:35;74585.31;;;-146.65;55.23
57094;BME280;42970;50.996;3.706;2023-03-26T17:26:45;74619.59;;;-146.65;53.93
57094;BME280;42970;50.996;3.706;2023-03-26T17:32:07;74702.28;;;-146.65;54.55
57094;BME280;42970;50.996;3.706;2023-03-26T17:37:03;74676.06;;;-146.65;54.89
57094;BME280;42970;50.996;3.706;2023-03-26T17:42:10;74702.28;;;-146.65;53.98
57094;BME280;42970;50.996;3.706;2023-03-26T17:47:10;74690.16;;;-146.65;53.46
57094;BME280;42970;50.996;3.706;2023-03-26T17:49:40;74700.25;;;-146.65;53.07
57094;BME280;42970;50.996;3.706;2023-03-26T17:54:48;74734.53;;;-146.65;53.77
57094;BME280;42970;50.996;3.706;2023-03-26T17:59:43;74726.47;;;-146.65;54.73
57094;BME280;42970;50.996;3.706;2023-03-26T18:02:16;74746.63;;;-146.65;55.01
57094;BME280;42970;50.996;3.706;2023-03-26T18:04:42;74724.47;;;-146.65;55.02
57094;BME280;42970;50.996;3.706;2023-03-26T18:12:23;74742.59;;;-146.65;55.34
57094;BME280;42970;50.996;3.706;2023-03-26T18:17:42;74764.78;;;-146.65;54.29
57094;BME280;42970;50.996;3.706;2023-03-26T18:20:20;74839.41;;;-146.65;53.35
57094;BME280;42970;50.996;3.706;2023-03-26T18:22:55;74803.09;;;-146.65;52.81
57094;BME280;42970;50.996;3.706;2023-03-26T18:25:23;74855.53;;;-146.65;51.83
57094;BME280;42970;50.996;3.706;2023-03-26T18:27:50;74819.25;;;-146.65;51.08
57094;BME280;42970;50.996;3.706;2023-03-26T18:30:17;74823.28;;;-146.65;50.06
57094;BME280;42970;50.996;3.706;2023-03-26T18:32:51;74823.28;;;-146.65;51.11
57094;BME280;42970;50.996;3.706;2023-03-26T18:35:22;74867.63;;;-146.65;50.42
57094;BME280;42970;50.996;3.706;2023-03-26T18:37:48;74918.06;;;-146.65;51.27
57094;BME280;42970;50.996;3.706;2023-03-26T18:40:17;74871.66;;;-146.65;50.60
57094;BME280;42970;50.996;3.706;2023-03-26T18:42:51;74875.72;;;-146.65;50.74
57094;BME280;42970;50.996;3.706;2023-03-26T18:47:42;74875.72;;;-146.65;49.77
57094;BME280;42970;50.996;3.706;2023-03-26T18:50:12;74907.97;;;-146.65;49.90
57094;BME280;42970;50.996;3.706;2023-03-26T18:52:39;74910.00;;;-146.65;49.99
57094;BME280;42970;50.996;3.706;2023-03-26T18:55:05;74910.00;;;-146.65;50.03